Harris, North Carolina
Current Conditions -  °F | °C
As of 7:15 AM on Friday 28 Nov 2014 (Local Time) from KFQD Reporting Station
Clear Clear  
Wind Chill: 18°   Ceiling: Unl
Heat Index: 24°   Visibility: 10mi
Dew Point: 18°   Wind: 5mph
Humidity: 76%   Direction: 330°NNW
Pressure: 30.35"   Gusts: NA
Location:  35.24°N, 81.87°W
Report Text: KFQD 281215Z AUTO 33004KT 10SM CLR M04/M08 A3035 RMK AO2 T10431080
Loading
Personal Weather Stations






























Interactive Weather Map New forecast layout! Learn more

10-Day Weather Forecast

Advertisements
Track Severe Weather on mobile